Terminal Aerodrome Forecast
Issued by NWS Cleveland, OH

Home | Current Version | Previous Version | Graphics & Text | Print | Product List | Glossary On
Versions: 1 2 3 4 5 6 7 8 9 10 11 12 13 14 15 16 17 18 19 20
559
FTUS41 KCLE 101138
TAFYNG
TAF
KYNG 101138Z 1012/1112 25015KT 6SM -SHSN OVC015
      TEMPO 1012/1014 3SM -SHSN
     FM101400 25015KT 3SM -SHSN OVC018
      TEMPO 1014/1016 1 1/2SM -SHSN
     FM101600 27015G22KT 1 1/2SM -SN OVC012
     FM110300 28012KT 3SM -SHSN OVC025=

USA.gov is the U.S. government's official web portal to all federal, state and local government web resources and services.